Nearby METAR Reports

 

KSJC - San Jose, California, USA
Distance from station: NE 9mi, 14km
Updated: Thu, 29-Sep-2022 7:53am CDT
Few Clouds
Few Clouds
 Wind from SSE
Wind: SSE 3 mph , 6 km/h
Temperature: 57°F , 14°C
Dew Point: 55°F , 13°C
Humidity: 94%
Barometer: 30.05 inHg , 1017.6 hPa
Clouds: Few Clouds
Visibility: 10 miles , 16 km
Cloud details: Few Clouds 100 ft
Few Clouds 500 ft
2022/09/29 12:53 KSJC 291253Z 15003KT 10SM FEW001 FEW005 14/13 A3005 RMK AO2 SLP175 T01440128 $
KNUQ - Moffett Nas/Mtn, California, USA
Distance from station: N 9mi, 14km
Updated: Thu, 29-Sep-2022 8:15am CDT
Mostly cloudy
Mostly cloudy
 Wind from calm
Wind: Calm
Temperature: 57°F , 14°C
Dew Point: 55°F , 13°C
Humidity: 94%
Barometer: 30.06 inHg , 1017.9 hPa
Clouds: Mostly cloudy
Visibility: 10 miles , 16 km
Cloud details: Mostly cloudy 1100 ft
2022/09/29 13:15 KNUQ 291315Z AUTO 00000KT 10SM BKN011 14/13 A3006 RMK AO2
 
KPAO - Palo Alto, California, USA
Distance from station: NNW 14mi, 23km
Updated: Wed, 28-Sep-2022 11:00pm CDT
NOT Current
Clear
Clear
 Wind from NNW
Wind: NNW 8 mph , 13 km/h
Temperature: 64°F , 18°C
Dew Point: 57°F , 14°C
Humidity: 78%
Barometer: 30.05 inHg , 1017.6 hPa
Clouds: Clear
Visibility: 10 miles , 16 km
2022/09/29 04:00 KPAO 290400Z 34007KT 10SM SKC 18/14 A3005 RMK LAST
KRHV - San Jose/Reid, California, USA
Distance from station: ENE 12mi, 19km
Updated: Wed, 28-Sep-2022 11:47pm CDT
NOT Current
Clear
Clear
 Wind from NNW
Wind: NNW 8 mph , 13 km/h
Temperature: 64°F , 18°C
Dew Point: 59°F , 15°C
Humidity: 83%
Barometer: 30.07 inHg , 1018.3 hPa
Clouds: Clear
Visibility: 10 miles , 16 km
2022/09/29 04:47 KRHV 290447Z 33007KT 10SM SKC 18/15 A3007 RMK LAST
 
KOAK - Oakland, California, USA
Distance from station: NNW 31mi, 50km
Updated: Thu, 29-Sep-2022 7:53am CDT
Mostly cloudy
Mostly cloudy
 Wind from calm
Wind: Calm
Temperature: 57°F , 14°C
Dew Point: 54°F , 12°C
Humidity: 88%
Barometer: 30.06 inHg , 1017.9 hPa
Clouds: Mostly cloudy
Visibility: 10 miles , 16 km
Cloud details: Few Clouds 800 ft
Mostly cloudy 1000 ft
2022/09/29 12:53 KOAK 291253Z 00000KT 10SM FEW008 BKN010 14/12 A3006 RMK AO2 SLP177 T01390122
KSQL - San Carlos Airpo, California, USA
Distance from station: NW 21mi, 34km
Updated: Thu, 29-Sep-2022 8:15am CDT
Overcast
Overcast
 Wind from calm
Wind: Calm
Temperature: 59°F , 15°C
Dew Point: 57°F , 14°C
Humidity: 94%
Barometer: 30.07 inHg , 1018.3 hPa
Clouds: Overcast
Visibility: 10 miles , 16 km
Cloud details: Overcast 1400 ft
2022/09/29 13:15 KSQL 291315Z AUTO 00000KT 10SM OVC014 15/14 A3007 RMK AO2
 
KSFO - San Francisco, California, USA
Distance from station: NW 30mi, 49km
Updated: Thu, 29-Sep-2022 7:56am CDT
Few Clouds
Few Clouds
 Wind from W
Wind: W 7 mph , 11 km/h
Temperature: 59°F , 15°C
Dew Point: 55°F , 13°C
Humidity: 88%
Barometer: 30.05 inHg , 1017.6 hPa
Clouds: Few Clouds
Visibility: 10 miles , 16 km
Cloud details: Few Clouds 800 ft
2022/09/29 12:56 KSFO 291256Z 27006KT 10SM FEW008 15/13 A3005 RMK AO2 SLP177 T01500133
KE16 - San Martin, California, USA
Distance from station: ESE 27mi, 43km
Updated: Thu, 29-Sep-2022 8:15am CDT
Clear
Clear
 Wind from calm
Wind: Calm
Temperature: 55°F , 13°C
Dew Point: 54°F , 12°C
Humidity: 94%
Barometer: 30.08 inHg , 1018.6 hPa
Clouds: Clear
Visibility: 10 miles , 16 km
2022/09/29 13:15 KE16 291315Z AUTO 00000KT 10SM CLR 13/12 A3008 RMK AO2 PWINO PNO
 
KWVI - Watsonville, California, USA
Distance from station: SSE 27mi, 44km
Updated: Thu, 29-Sep-2022 7:53am CDT
Clear
Clear
 Wind from calm
Wind: Calm
Temperature: 52°F , 11°C
Dew Point: 52°F , 11°C
Humidity: 100%
Barometer: 30.06 inHg , 1017.9 hPa
Clouds: Clear
Visibility: 10 miles , 16 km
2022/09/29 12:53 KWVI 291253Z AUTO 00000KT 10SM CLR 11/11 A3006 RMK AO2 SLP177 T01110111
KHAF - Half Moon Bay, California, USA
Distance from station: WNW 31mi, 50km
Updated: Thu, 29-Sep-2022 8:15am CDT
Mist, Overcast
Mist, Overcast
 Wind from calm
Wind: Calm
Temperature: 55°F , 13°C
Dew Point: 55°F , 13°C
Humidity: 100%
Barometer: 30.07 inHg , 1018.3 hPa
Summary: Mist
Clouds: Overcast
Visibility: 6 miles , 10 km
Cloud details: Overcast 1100 ft
2022/09/29 13:15 KHAF 291315Z AUTO 00000KT 6SM BR OVC011 13/13 A3007 RMK AO2
 
KHWD - Hayward, California, USA
Distance from station: N 28mi, 44km
Updated: Thu, 29-Sep-2022 7:54am CDT
Partly cloudy
Partly cloudy
 Wind from WNW
Wind: WNW 6 mph , 9 km/h
Temperature: 61°F , 16°C
Dew Point: 55°F , 13°C
Humidity: 83%
Barometer: 30.05 inHg , 1017.6 hPa
Clouds: Partly cloudy
Visibility: 10 miles , 16 km
Cloud details: Partly cloudy 1000 ft
2022/09/29 12:54 KHWD 291254Z 29005KT 10SM SCT010 16/13 A3005 RMK AO2 SLP185 T01560133
KLVK - Livermore, California, USA
Distance from station: NNE 31mi, 51km
Updated: Thu, 29-Sep-2022 7:53am CDT
Clear
Clear
 Wind from calm
Wind: Calm
Temperature: 55°F , 13°C
Dew Point: 55°F , 13°C
Humidity: 100%
Barometer: 30.05 inHg , 1017.6 hPa
Clouds: Clear
Visibility: 10 miles , 16 km
2022/09/29 12:53 KLVK 291253Z AUTO 00000KT 10SM CLR 13/13 A3005 RMK AO2 SLP172 T01330128